Time;durP1;ratioP1;P1;durP2;ratioP2;P2;SDS_P1;SDS_P2;PMS_P1;PMS_P2;Temp;Humidity;BMP_temperature;BMP_pressure;BME280_temperature;BME280_humidity;BME280_pressure;Samples;Min_cycle;Max_cycle;Signal;HPM_P1;HPM_P2
2022/06/25 00:01:52;;;;;;;1.80;1.20;;;;;;;;;;5131936;27;20450;-67
2022/06/25 00:07:05;;;;;;;2.03;1.33;;;;;;;;;;5130817;27;20896;-67
2022/06/25 00:09:32;;;;;;;2.20;1.70;;;;;;;;;;5132003;27;20454;-67
2022/06/25 00:14:45;;;;;;;1.60;1.30;;;;;;;;;;5124494;27;20459;-65
2022/06/25 00:17:12;;;;;;;3.47;1.03;;;;;;;;;;5131543;27;20456;-67
2022/06/25 00:19:39;;;;;;;1.70;1.40;;;;;;;;;;5131871;27;20449;-67
2022/06/25 00:22:06;;;;;;;1.80;1.23;;;;;;;;;;5131426;27;20454;-66
2022/06/25 00:24:33;;;;;;;6.47;1.50;;;;;;;;;;5132176;27;20450;-66
2022/06/25 00:27:02;;;;;;;1.77;1.27;;;;;;;;;;5130952;27;20507;-67
2022/06/25 00:29:29;;;;;;;1.60;1.30;;;;;;;;;;5131506;27;20445;-69
2022/06/25 00:31:56;;;;;;;2.80;1.77;;;;;;;;;;5130935;27;20804;-66
2022/06/25 00:34:25;;;;;;;2.10;1.70;;;;;;;;;;5131108;27;20965;-66
2022/06/25 00:36:53;;;;;;;1.57;1.20;;;;;;;;;;5131461;27;20472;-67
2022/06/25 00:39:20;;;;;;;1.60;1.20;;;;;;;;;;5131339;27;20941;-66
2022/06/25 00:41:47;;;;;;;2.17;1.63;;;;;;;;;;5132122;27;20441;-66
2022/06/25 00:44:16;;;;;;;1.20;1.03;;;;;;;;;;5130998;27;20460;-66
2022/06/25 00:46:47;;;;;;;2.33;1.47;;;;;;;;;;5131808;27;20841;-66
2022/06/25 00:49:14;;;;;;;1.57;1.40;;;;;;;;;;5131698;27;20844;-66
2022/06/25 00:51:41;;;;;;;1.30;1.10;;;;;;;;;;5133325;27;20964;-66
2022/06/25 00:54:11;;;;;;;6.90;1.40;;;;;;;;;;5131382;27;20484;-66
2022/06/25 00:56:40;;;;;;;1.60;1.40;;;;;;;;;;5131627;27;20507;-66
2022/06/25 00:59:08;;;;;;;1.73;1.53;;;;;;;;;;5130426;28;20445;-66
2022/06/25 01:01:36;;;;;;;1.93;1.63;;;;;;;;;;5131557;28;20459;-66
2022/06/25 01:04:04;;;;;;;2.07;1.50;;;;;;;;;;5130979;28;20444;-65
2022/06/25 01:06:31;;;;;;;2.30;1.17;;;;;;;;;;5131002;28;20450;-66
2022/06/25 01:08:58;;;;;;;2.00;1.37;;;;;;;;;;5130925;28;20792;-66
2022/06/25 01:11:25;;;;;;;3.93;1.47;;;;;;;;;;5122240;27;20481;-66
2022/06/25 01:13:53;;;;;;;1.57;1.47;;;;;;;;;;5137608;27;20470;-66
2022/06/25 01:16:21;;;;;;;1.50;1.10;;;;;;;;;;5131593;28;20443;-66
2022/06/25 01:18:50;;;;;;;1.57;1.20;;;;;;;;;;5130341;28;20931;-66
2022/06/25 01:21:17;;;;;;;1.30;1.10;;;;;;;;;;5131616;28;20448;-66
2022/06/25 01:23:45;;;;;;;2.03;1.40;;;;;;;;;;5131420;28;20444;-66
2022/06/25 01:26:13;;;;;;;2.10;1.70;;;;;;;;;;5118521;28;20480;-66
2022/06/25 01:28:40;;;;;;;1.77;1.10;;;;;;;;;;5130533;28;20450;-67
2022/06/25 01:31:07;;;;;;;1.53;1.40;;;;;;;;;;5130811;28;20813;-67
2022/06/25 01:33:34;;;;;;;1.80;1.67;;;;;;;;;;5130856;28;20497;-67
2022/06/25 01:36:01;;;;;;;3.90;1.70;;;;;;;;;;5131052;28;20466;-67
2022/06/25 01:38:28;;;;;;;1.50;1.30;;;;;;;;;;5130440;28;20988;-67
2022/06/25 01:40:57;;;;;;;1.90;1.43;;;;;;;;;;5130983;28;20448;-67
2022/06/25 01:43:24;;;;;;;1.60;1.40;;;;;;;;;;5130865;27;20534;-66
2022/06/25 01:45:51;;;;;;;1.60;1.50;;;;;;;;;;5134200;27;20946;-71
2022/06/25 01:48:18;;;;;;;1.57;1.47;;;;;;;;;;5134551;27;20453;-66
2022/06/25 01:50:45;;;;;;;2.43;1.70;;;;;;;;;;5135154;27;20566;-67
2022/06/25 01:53:12;;;;;;;1.97;1.33;;;;;;;;;;5134117;27;20973;-66
2022/06/25 01:55:39;;;;;;;2.40;1.23;;;;;;;;;;5135025;27;20459;-67
2022/06/25 01:58:08;;;;;;;2.30;1.57;;;;;;;;;;5134084;27;20441;-66
2022/06/25 02:00:35;;;;;;;1.77;1.37;;;;;;;;;;5135217;27;20443;-67
2022/06/25 02:03:02;;;;;;;1.67;1.50;;;;;;;;;;5134052;27;20462;-67
2022/06/25 02:08:16;;;;;;;1.57;1.13;;;;;;;;;;5127329;27;20520;-66
2022/06/25 02:10:43;;;;;;;1.73;1.20;;;;;;;;;;5134696;27;20444;-66
2022/06/25 02:13:12;;;;;;;1.30;1.20;;;;;;;;;;5134121;27;20719;-66
2022/06/25 02:15:40;;;;;;;1.20;1.10;;;;;;;;;;5134929;27;20514;-67
2022/06/25 02:18:08;;;;;;;2.47;1.83;;;;;;;;;;5133669;27;20450;-66
2022/06/25 02:20:35;;;;;;;1.10;0.87;;;;;;;;;;5135982;27;21015;-66
2022/06/25 02:23:02;;;;;;;4.97;1.40;;;;;;;;;;5133904;27;20438;-66
2022/06/25 02:25:29;;;;;;;2.10;1.60;;;;;;;;;;5134279;27;20439;-66
2022/06/25 02:27:57;;;;;;;2.10;1.50;;;;;;;;;;5132986;27;20451;-67
2022/06/25 02:30:25;;;;;;;1.73;1.40;;;;;;;;;;5134151;27;20448;-68
2022/06/25 02:32:52;;;;;;;2.73;2.53;;;;;;;;;;5133123;27;20816;-67
2022/06/25 02:35:20;;;;;;;1.93;1.50;;;;;;;;;;5134582;27;20847;-66
2022/06/25 02:37:47;;;;;;;1.73;1.30;;;;;;;;;;5134590;27;20613;-66
2022/06/25 02:40:14;;;;;;;1.70;1.23;;;;;;;;;;5133123;27;20447;-65
2022/06/25 02:42:41;;;;;;;2.57;1.50;;;;;;;;;;5134276;27;20451;-65
2022/06/25 02:45:10;;;;;;;1.70;1.20;;;;;;;;;;5133708;27;20824;-67
2022/06/25 02:47:38;;;;;;;3.00;1.80;;;;;;;;;;5134459;27;20454;-66
2022/06/25 02:50:07;;;;;;;2.07;1.27;;;;;;;;;;5132670;27;20454;-66
2022/06/25 02:52:34;;;;;;;2.20;1.60;;;;;;;;;;5133458;27;20942;-66
2022/06/25 02:55:02;;;;;;;1.80;1.53;;;;;;;;;;5132667;27;20471;-67
2022/06/25 03:00:14;;;;;;;1.53;1.27;;;;;;;;;;5123166;27;20537;-66
2022/06/25 03:02:43;;;;;;;3.33;2.20;;;;;;;;;;5133758;27;20461;-65
2022/06/25 03:05:10;;;;;;;3.13;1.43;;;;;;;;;;5133072;27;21047;-66
2022/06/25 03:07:37;;;;;;;1.50;1.20;;;;;;;;;;5133163;27;20452;-67
2022/06/25 03:10:05;;;;;;;1.90;1.60;;;;;;;;;;5132237;27;20543;-66
2022/06/25 03:12:32;;;;;;;2.17;1.97;;;;;;;;;;5137089;27;20458;-67
2022/06/25 03:14:59;;;;;;;1.87;1.30;;;;;;;;;;5133018;27;20566;-67
2022/06/25 03:17:27;;;;;;;1.97;1.60;;;;;;;;;;5133480;27;20454;-65
2022/06/25 03:19:56;;;;;;;1.57;1.30;;;;;;;;;;5132268;27;20545;-66
2022/06/25 03:22:23;;;;;;;1.83;1.67;;;;;;;;;;5133327;27;20459;-67
2022/06/25 03:24:50;;;;;;;1.80;1.30;;;;;;;;;;5133562;27;20974;-66
2022/06/25 03:27:17;;;;;;;3.60;1.80;;;;;;;;;;5133226;27;20474;-66
2022/06/25 03:29:44;;;;;;;2.40;1.50;;;;;;;;;;5132069;27;20446;-66
2022/06/25 03:32:11;;;;;;;1.80;1.27;;;;;;;;;;5132319;27;20519;-67
2022/06/25 03:34:38;;;;;;;1.33;1.23;;;;;;;;;;5132772;27;20550;-66
2022/06/25 03:37:07;;;;;;;1.63;1.40;;;;;;;;;;5132536;27;20789;-65
2022/06/25 03:39:34;;;;;;;4.03;1.70;;;;;;;;;;5132561;27;20477;-67
2022/06/25 03:42:02;;;;;;;1.57;1.40;;;;;;;;;;5132170;27;20482;-66
2022/06/25 03:44:29;;;;;;;2.00;1.27;;;;;;;;;;5132874;27;20451;-66
2022/06/25 03:46:56;;;;;;;1.93;1.53;;;;;;;;;;5132394;27;20446;-66
2022/06/25 03:49:23;;;;;;;3.07;1.20;;;;;;;;;;5132667;27;20455;-67
2022/06/25 03:51:51;;;;;;;3.50;1.40;;;;;;;;;;5132969;27;20454;-65
2022/06/25 03:54:20;;;;;;;3.40;1.50;;;;;;;;;;5132263;27;20483;-66
2022/06/25 03:56:47;;;;;;;1.43;1.20;;;;;;;;;;5132369;27;20595;-66
2022/06/25 03:59:14;;;;;;;2.17;1.40;;;;;;;;;;5131543;27;20462;-67
2022/06/25 04:01:41;;;;;;;1.80;1.30;;;;;;;;;;5130930;27;20451;-66
2022/06/25 04:04:09;;;;;;;1.60;1.20;;;;;;;;;;5131126;27;20450;-66
2022/06/25 04:06:36;;;;;;;2.07;1.50;;;;;;;;;;5132051;27;20454;-66
2022/06/25 04:09:04;;;;;;;2.07;1.47;;;;;;;;;;5131058;27;20446;-66
2022/06/25 04:11:32;;;;;;;4.20;1.50;;;;;;;;;;5136906;27;20450;-66
2022/06/25 04:14:00;;;;;;;1.53;1.43;;;;;;;;;;5126193;27;20469;-67
2022/06/25 04:16:27;;;;;;;1.47;1.20;;;;;;;;;;5132223;27;20506;-65
2022/06/25 04:18:54;;;;;;;1.27;1.13;;;;;;;;;;5130791;27;20450;-65
2022/06/25 04:21:21;;;;;;;1.70;1.30;;;;;;;;;;5132250;27;20449;-67
2022/06/25 04:23:48;;;;;;;1.50;1.20;;;;;;;;;;5131028;27;20458;-66
2022/06/25 04:26:15;;;;;;;2.23;1.80;;;;;;;;;;5131966;27;20469;-66
2022/06/25 04:31:29;;;;;;;2.57;1.80;;;;;;;;;;5124738;27;20448;-65
2022/06/25 04:33:56;;;;;;;1.43;1.23;;;;;;;;;;5130972;27;20816;-66
2022/06/25 04:36:23;;;;;;;2.33;1.50;;;;;;;;;;5131352;27;20535;-66
2022/06/25 04:38:51;;;;;;;2.80;1.00;;;;;;;;;;5130945;27;20506;-69
2022/06/25 04:41:19;;;;;;;1.50;1.23;;;;;;;;;;5131818;27;20457;-67
2022/06/25 04:43:47;;;;;;;1.73;1.30;;;;;;;;;;5131765;27;20528;-67
2022/06/25 04:46:14;;;;;;;4.70;1.30;;;;;;;;;;5131211;27;20459;-67
2022/06/25 04:48:41;;;;;;;1.90;1.70;;;;;;;;;;5130917;27;20937;-68
2022/06/25 04:51:09;;;;;;;1.40;1.23;;;;;;;;;;5131203;27;20455;-66
2022/06/25 04:53:54;;;;;;;2.87;1.63;;;;;;;;;;5131500;27;20442;-67
2022/06/25 04:56:22;;;;;;;3.70;1.57;;;;;;;;;;5131734;27;20484;-67
2022/06/25 04:58:51;;;;;;;2.83;1.80;;;;;;;;;;5130935;28;20447;-67
2022/06/25 05:01:18;;;;;;;2.33;1.20;;;;;;;;;;5131350;28;20466;-67
2022/06/25 05:03:45;;;;;;;2.17;1.33;;;;;;;;;;5131989;28;20450;-67
2022/06/25 05:06:12;;;;;;;1.40;1.20;;;;;;;;;;5130849;28;20454;-66
2022/06/25 05:08:40;;;;;;;1.80;1.50;;;;;;;;;;5130692;28;20441;-66
2022/06/25 05:11:07;;;;;;;2.10;1.50;;;;;;;;;;5131602;27;20443;-67
2022/06/25 05:13:35;;;;;;;1.30;1.20;;;;;;;;;;5131389;28;20438;-66
2022/06/25 05:16:03;;;;;;;1.57;1.17;;;;;;;;;;5130997;28;20482;-68
2022/06/25 05:18:30;;;;;;;1.50;1.40;;;;;;;;;;5131200;27;20442;-66
2022/06/25 05:20:57;;;;;;;1.23;1.10;;;;;;;;;;5135122;27;20458;-66
2022/06/25 05:23:24;;;;;;;3.80;1.20;;;;;;;;;;5135604;27;20450;-67
2022/06/25 05:25:52;;;;;;;1.60;1.20;;;;;;;;;;5134851;27;20476;-67
2022/06/25 05:28:19;;;;;;;1.70;1.60;;;;;;;;;;5134860;27;20478;-67
2022/06/25 05:30:46;;;;;;;1.50;1.20;;;;;;;;;;5135952;27;20807;-67
2022/06/25 05:33:14;;;;;;;1.30;1.00;;;;;;;;;;5134408;27;20474;-66
2022/06/25 05:35:41;;;;;;;1.50;1.13;;;;;;;;;;5135001;27;20489;-67
2022/06/25 05:38:09;;;;;;;2.33;1.37;;;;;;;;;;5133853;27;20446;-66
2022/06/25 05:40:36;;;;;;;1.33;1.07;;;;;;;;;;5135434;27;20458;-66
2022/06/25 05:43:03;;;;;;;1.30;1.00;;;;;;;;;;5134025;27;20439;-67
2022/06/25 05:45:30;;;;;;;2.53;1.40;;;;;;;;;;5135049;27;21019;-66
2022/06/25 05:47:57;;;;;;;3.03;1.37;;;;;;;;;;5133277;27;20455;-68
2022/06/25 05:50:26;;;;;;;1.30;1.00;;;;;;;;;;5134783;27;20439;-66
2022/06/25 05:52:55;;;;;;;2.20;1.80;;;;;;;;;;5133795;27;20464;-68
2022/06/25 05:55:22;;;;;;;1.20;0.90;;;;;;;;;;5134910;27;20474;-68
2022/06/25 05:57:49;;;;;;;1.13;1.03;;;;;;;;;;5134964;27;20455;-68
2022/06/25 06:00:17;;;;;;;1.20;0.80;;;;;;;;;;5134351;27;20446;-66
2022/06/25 06:02:44;;;;;;;1.27;1.17;;;;;;;;;;5134557;27;20451;-66
2022/06/25 06:05:12;;;;;;;1.20;0.77;;;;;;;;;;5134089;27;20443;-67
2022/06/25 06:07:40;;;;;;;1.30;0.97;;;;;;;;;;5134635;27;20450;-67
2022/06/25 06:10:08;;;;;;;1.20;0.97;;;;;;;;;;5134606;27;20451;-67
2022/06/25 06:12:35;;;;;;;1.13;1.03;;;;;;;;;;5145851;27;20499;-67
2022/06/25 06:15:02;;;;;;;1.40;1.30;;;;;;;;;;5133215;27;20553;-67
2022/06/25 06:17:30;;;;;;;1.30;1.20;;;;;;;;;;5133965;27;21033;-69
2022/06/25 06:19:57;;;;;;;1.53;1.03;;;;;;;;;;5135199;27;20446;-68
2022/06/25 06:22:24;;;;;;;1.43;1.20;;;;;;;;;;5134267;27;20478;-68
2022/06/25 06:24:52;;;;;;;1.30;1.10;;;;;;;;;;5134365;27;20443;-72
2022/06/25 06:27:19;;;;;;;1.77;1.00;;;;;;;;;;5134435;27;20520;-68
2022/06/25 06:29:47;;;;;;;1.60;0.93;;;;;;;;;;5134198;27;20438;-66
2022/06/25 06:32:14;;;;;;;1.73;1.00;;;;;;;;;;5132603;27;20978;-67
2022/06/25 06:34:42;;;;;;;1.43;0.97;;;;;;;;;;5134582;27;20535;-68
2022/06/25 06:37:09;;;;;;;1.10;1.00;;;;;;;;;;5133736;27;20439;-68
2022/06/25 06:39:36;;;;;;;1.63;1.20;;;;;;;;;;5133893;27;20446;-68
2022/06/25 06:42:05;;;;;;;1.20;1.00;;;;;;;;;;5133691;27;20446;-68
2022/06/25 06:44:32;;;;;;;1.40;1.00;;;;;;;;;;5134422;27;20443;-68
2022/06/25 06:46:59;;;;;;;1.40;1.30;;;;;;;;;;5133422;27;20454;-70
2022/06/25 06:49:27;;;;;;;2.23;1.10;;;;;;;;;;5133743;27;20435;-68
2022/06/25 06:51:54;;;;;;;2.70;1.17;;;;;;;;;;5133304;27;20443;-68
2022/06/25 06:54:21;;;;;;;1.20;1.10;;;;;;;;;;5129297;27;20926;-70
2022/06/25 06:56:48;;;;;;;1.30;1.10;;;;;;;;;;5134205;27;20841;-68
2022/06/25 06:59:17;;;;;;;0.90;0.77;;;;;;;;;;5131550;27;20444;-68
2022/06/25 07:01:44;;;;;;;0.93;0.90;;;;;;;;;;5133623;27;20506;-68
2022/06/25 07:04:11;;;;;;;1.40;1.20;;;;;;;;;;5132837;27;20451;-68
2022/06/25 07:06:38;;;;;;;1.67;1.10;;;;;;;;;;5133386;27;20797;-67
2022/06/25 07:09:05;;;;;;;1.67;1.57;;;;;;;;;;5132317;27;20454;-69
2022/06/25 07:11:32;;;;;;;1.10;1.00;;;;;;;;;;5130304;27;20553;-67
2022/06/25 07:14:00;;;;;;;1.00;0.90;;;;;;;;;;5138223;27;20546;-68
2022/06/25 07:16:29;;;;;;;1.07;0.87;;;;;;;;;;5133289;27;20524;-68
2022/06/25 07:18:57;;;;;;;2.17;1.20;;;;;;;;;;5131872;27;20451;-66
2022/06/25 07:21:24;;;;;;;3.37;1.03;;;;;;;;;;5133400;27;20813;-67
2022/06/25 07:23:52;;;;;;;1.33;1.23;;;;;;;;;;5132819;27;20465;-70
2022/06/25 07:26:19;;;;;;;1.00;0.87;;;;;;;;;;5134148;27;20501;-67
2022/06/25 07:28:46;;;;;;;1.00;0.80;;;;;;;;;;5133315;27;20447;-67
2022/06/25 07:31:14;;;;;;;1.23;1.13;;;;;;;;;;5133487;27;20447;-68
2022/06/25 07:33:43;;;;;;;1.10;0.90;;;;;;;;;;5134009;27;20598;-68
2022/06/25 07:36:10;;;;;;;0.80;0.80;;;;;;;;;;5132899;27;21071;-69
2022/06/25 07:38:38;;;;;;;1.07;0.90;;;;;;;;;;5132836;27;20522;-69
2022/06/25 07:41:05;;;;;;;2.73;1.10;;;;;;;;;;5133020;27;20504;-69
2022/06/25 07:43:32;;;;;;;2.10;1.10;;;;;;;;;;5133190;27;20568;-70
2022/06/25 07:46:00;;;;;;;1.47;1.20;;;;;;;;;;5132153;27;20530;-71
2022/06/25 07:48:27;;;;;;;1.60;1.50;;;18.80;99.90;;;;;;5132401;27;20447;-68
2022/06/25 07:53:39;;;;;;;1.27;1.17;;;20.80;99.90;;;;;;5132533;27;21043;-69
2022/06/25 07:56:07;;;;;;;1.70;1.50;;;20.70;27.10;;;;;;5132170;27;20470;-68
2022/06/25 07:58:34;;;;;;;2.70;1.57;;;20.80;99.90;;;;;;5132339;27;20443;-68
2022/06/25 08:01:01;;;;;;;1.23;1.13;;;21.00;1.00;;;;;;5133465;27;20518;-69
2022/06/25 08:03:28;;;;;;;3.23;1.57;;;21.20;1.00;;;;;;5133180;27;20459;-68
2022/06/25 08:05:56;;;;;;;1.47;1.13;;;21.20;99.90;;;;;;5132042;27;20557;-68
2022/06/25 08:08:23;;;;;;;1.30;1.17;;;21.30;99.90;;;;;;5131904;27;20937;-68
2022/06/25 08:10:51;;;;;;;2.50;1.30;;;21.40;10.30;;;;;;5132412;27;20444;-75
2022/06/25 08:13:18;;;;;;;1.50;1.23;;;21.60;99.90;;;;;;5143961;27;20451;-68
2022/06/25 08:15:45;;;;;;;1.20;1.10;;;21.50;99.90;;;;;;5131365;27;20474;-68
2022/06/25 08:18:12;;;;;;;2.10;1.23;;;21.60;99.90;;;;;;5131188;27;20451;-69
2022/06/25 08:20:39;;;;;;;1.30;1.20;;;;;;;;;;5132257;27;20477;-71
2022/06/25 08:23:07;;;;;;;1.13;1.03;;;;;;;;;;5131543;27;20451;-69
2022/06/25 08:25:34;;;;;;;1.17;1.00;;;;;;;;;;5132077;27;20450;-69
2022/06/25 08:28:01;;;;;;;1.50;1.40;;;;;;;;;;5131309;27;20447;-69
2022/06/25 08:30:29;;;;;;;1.13;1.03;;;;;;;;;;5129236;27;20489;-69
2022/06/25 08:32:56;;;;;;;1.30;1.07;;;;;;;;;;5131044;27;20475;-70
2022/06/25 08:35:23;;;;;;;3.10;1.20;;;;;;;;;;5131706;27;20450;-71
2022/06/25 08:37:51;;;;;;;2.47;1.00;;;;;;;;;;5131877;27;20874;-78
2022/06/25 08:40:22;;;;;;;2.50;1.10;;;;;;;;;;5131469;27;20489;-74
2022/06/25 08:42:50;;;;;;;1.70;1.20;;;;;;;;;;5123426;27;20470;-71
2022/06/25 08:45:17;;;;;;;1.30;0.90;;;;;;;;;;5131271;27;20435;-70
2022/06/25 08:47:45;;;;;;;1.30;1.10;;;;;;;;;;5131470;27;20817;-70
2022/06/25 08:50:14;;;;;;;1.50;1.07;;;;;;;;;;5131644;27;20466;-70
2022/06/25 08:52:44;;;;;;;3.60;1.83;;;;;;;;;;5132148;27;20892;-70
2022/06/25 08:55:11;;;;;;;1.03;0.93;;;;;;;;;;5130432;27;21007;-70
2022/06/25 08:57:41;;;;;;;1.83;1.30;;;;;;;;;;5131618;27;20501;-70
2022/06/25 09:00:09;;;;;;;1.20;1.00;;;;;;;;;;5131255;28;20443;-70
2022/06/25 09:02:39;;;;;;;2.30;0.73;;;;;;;;;;5131189;28;20986;-70
2022/06/25 09:05:06;;;;;;;1.10;1.00;;;;;;;;;;5131241;28;20443;-70
2022/06/25 09:07:33;;;;;;;0.93;0.83;;;;;;;;;;5131144;28;20473;-70
2022/06/25 09:10:01;;;;;;;1.23;1.13;;;;;;;;;;5131071;28;20455;-70
2022/06/25 09:12:28;;;;;;;1.53;1.10;;;;;;;;;;5142838;27;20450;-70
2022/06/25 09:14:56;;;;;;;2.40;1.03;;;;;;;;;;5131038;28;20498;-70
2022/06/25 09:17:23;;;;;;;1.53;1.40;;;;;;;;;;5130404;28;20470;-70
2022/06/25 09:19:53;;;;;;;1.13;1.03;;;;;;;;;;5130212;28;20459;-73
2022/06/25 09:22:22;;;;;;;1.43;1.10;;;;;;;;;;5131256;28;20457;-72
2022/06/25 09:24:50;;;;;;;2.13;1.40;;;;;;;;;;5131400;28;20467;-67
2022/06/25 09:27:19;;;;;;;1.13;1.03;;;;;;;;;;5130763;28;20451;-70
2022/06/25 09:29:48;;;;;;;2.77;1.73;;;;;;;;;;5131148;28;20495;-70
2022/06/25 09:32:17;;;;;;;0.93;0.83;;;;;;;;;;5130200;28;20506;-69
2022/06/25 09:34:44;;;;;;;1.33;1.23;;;;;;;;;;5130821;28;20792;-70
2022/06/25 09:37:18;;;;;;;1.17;1.07;;;;;;;;;;5129286;28;20970;-69
2022/06/25 09:39:46;;;;;;;1.10;0.97;;;;;;;;;;5131092;28;20443;-67
2022/06/25 09:42:23;;;;;;;1.20;1.10;;;;;;;;;;5129982;28;20446;-69
2022/06/25 09:44:58;;;;;;;1.30;1.13;;;;;;;;;;5130826;28;20846;-71
2022/06/25 09:47:27;;;;;;;1.13;1.03;;;;;;;;;;5129749;28;20457;-69
2022/06/25 09:50:04;;;;;;;1.37;1.20;;;;;;;;;;5130239;28;20449;-69
2022/06/25 09:52:31;;;;;;;2.03;1.10;;;;;;;;;;5131083;28;20434;-70
2022/06/25 09:54:58;;;;;;;1.60;1.10;;;;;;;;;;5130585;28;20515;-70
2022/06/25 09:57:25;;;;;;;1.50;1.40;;;;;;;;;;5131132;28;20832;-69
2022/06/25 09:59:53;;;;;;;1.53;1.13;;;;;;;;;;5130733;28;20453;-69
2022/06/25 10:02:21;;;;;;;1.50;1.00;;;;;;;;;;5131535;28;20879;-68
2022/06/25 10:04:50;;;;;;;1.50;1.27;;;;;;;;;;5131562;27;20526;-68
2022/06/25 10:07:17;;;;;;;1.17;1.07;;;;;;;;;;5134899;27;20451;-70
2022/06/25 10:09:45;;;;;;;2.10;1.40;;;;;;;;;;5135004;27;20522;-70
2022/06/25 10:12:12;;;;;;;1.00;0.90;;;;;;;;;;5145286;27;20458;-70
2022/06/25 10:14:40;;;;;;;2.10;1.07;;;;;;;;;;5134933;27;20438;-69
2022/06/25 10:17:08;;;;;;;1.23;1.10;;;;;;;;;;5133518;27;20478;-70
2022/06/25 10:19:36;;;;;;;1.43;1.10;;;;;;;;;;5134684;27;20960;-70
2022/06/25 10:22:05;;;;;;;1.90;1.23;;;;;;;;;;5134191;27;20789;-70
2022/06/25 10:24:32;;;;;;;2.47;1.80;;;;;;;;;;5134964;27;20439;-70
2022/06/25 10:26:59;;;;;;;2.00;1.20;;;;;;;;;;5134175;27;20450;-69
2022/06/25 10:29:27;;;;;;;1.60;1.10;;;;;;;;;;5134052;27;20449;-70
2022/06/25 10:32:09;;;;;;;1.37;1.27;;;;;;;;;;5133765;27;20477;-70
2022/06/25 10:34:36;;;;;;;2.73;1.77;;;;;;;;;;5134189;27;20462;-70
2022/06/25 10:37:05;;;;;;;1.30;1.10;;;;;;;;;;5133880;27;20483;-73
2022/06/25 10:39:36;;;;;;;1.17;1.07;;;;;;;;;;5134624;27;20439;-69
2022/06/25 10:45:07;;;;;;;1.20;1.10;;;;;;;;;;5129247;27;20398;-71
2022/06/25 10:47:41;;;;;;;1.73;1.07;;;;;;;;;;5131188;27;20447;-70
2022/06/25 10:50:27;;;;;;;1.17;1.07;;;;;;;;;;5129189;27;20443;-70
2022/06/25 10:53:12;;;;;;;2.07;1.20;;;;;;;;;;5130742;27;20447;-69
2022/06/25 10:55:42;;;;;;;1.83;1.10;;;;;;;;;;5131641;27;20442;-71
2022/06/25 10:58:12;;;;;;;1.03;0.93;;;;;;;;;;5130004;27;20500;-71
2022/06/25 11:00:46;;;;;;;1.13;1.03;;;;;;;;;;5129697;27;20447;-71
2022/06/25 11:03:13;;;;;;;1.00;0.83;;;;;;;;;;5130432;27;20516;-70
2022/06/25 11:05:41;;;;;;;1.87;1.13;;;;;;;;;;5131566;27;20561;-68
2022/06/25 11:08:08;;;;;;;1.10;1.00;;;;;;;;;;5130356;27;20512;-69
2022/06/25 11:10:36;;;;;;;1.27;1.17;;;;;;;;;;5131802;27;20447;-70
2022/06/25 11:13:05;;;;;;;1.20;1.10;;;;;;;;;;5142076;27;20459;-69
2022/06/25 11:15:39;;;;;;;1.80;1.17;;;;;;;;;;5130878;27;20461;-70
2022/06/25 11:18:08;;;;;;;2.10;1.43;;;;;;;;;;5129662;27;20980;-70
2022/06/25 11:20:35;;;;;;;2.13;1.60;;;;;;;;;;5130704;27;20511;-70
2022/06/25 11:23:02;;;;;;;2.03;1.03;;;;;;;;;;5130941;27;20518;-71
2022/06/25 11:31:12;;;;;;;1.30;0.93;;;;;;;;;;5113123;27;20961;-70
2022/06/25 11:33:40;;;;;;;1.90;1.23;;;;;;;;;;5126869;27;20538;-71
2022/06/25 11:36:08;;;;;;;1.20;1.10;;;;;;;;;;5129778;27;20469;-69
2022/06/25 11:38:36;;;;;;;1.70;1.10;;;;;;;;;;5130123;27;21016;-70
2022/06/25 11:41:03;;;;;;;1.30;1.20;;;;;;;;;;5129957;27;20460;-70
2022/06/25 11:43:34;;;;;;;3.47;1.27;;;;;;;;;;5130228;27;20443;-70
2022/06/25 11:46:02;;;;;;;1.17;1.07;;;;;;;;;;5129975;27;20439;-70
2022/06/25 11:48:30;;;;;;;1.60;1.10;;;;;;;;;;5130090;27;20965;-68
2022/06/25 11:50:57;;;;;;;1.93;1.77;;;;;;;;;;5130204;27;20812;-71
2022/06/25 11:53:24;;;;;;;1.10;1.00;;;;;;;;;;5130322;27;20476;-69
2022/06/25 11:55:58;;;;;;;1.30;1.17;;;;;;;;;;5129407;27;20965;-72
2022/06/25 11:58:26;;;;;;;1.07;1.00;;;;;;;;;;5127626;27;20487;-70
2022/06/25 12:00:57;;;;;;;0.80;0.80;;;;;;;;;;5130025;27;20496;-70
2022/06/25 12:03:25;;;;;;;1.50;1.03;;;;;;;;;;5130622;27;20938;-70
2022/06/25 12:05:52;;;;;;;1.07;0.97;;;;;;;;;;5129502;27;20508;-69
2022/06/25 12:08:20;;;;;;;1.30;1.20;;;;;;;;;;5129612;27;20860;-70
2022/06/25 12:10:48;;;;;;;1.83;1.37;;;;;;;;;;5129838;27;20468;-70
2022/06/25 12:13:15;;;;;;;1.10;0.90;;;;;;;;;;5140656;27;20473;-70
2022/06/25 12:15:43;;;;;;;1.63;1.37;;;;;;;;;;5129982;27;20868;-71
2022/06/25 12:18:11;;;;;;;2.63;1.63;;;;;;;;;;5129026;27;20494;-71
2022/06/25 12:20:54;;;;;;;1.57;1.47;;;;;;;;;;5129962;27;20431;-69
2022/06/25 12:23:21;;;;;;;1.37;0.97;;;;;;;;;;5130526;27;20494;-72
2022/06/25 12:25:49;;;;;;;1.20;1.10;;;;;;;;;;5130318;27;20443;-69
2022/06/25 12:28:16;;;;;;;1.63;1.20;;;;;;;;;;5129758;27;20439;-70
2022/06/25 12:30:43;;;;;;;3.03;1.10;;;;;;;;;;5129518;27;20450;-72
2022/06/25 12:33:14;;;;;;;1.20;1.10;;;;;;;;;;5129475;27;20840;-70
2022/06/25 12:35:41;;;;;;;1.20;1.10;;;;;;;;;;5128369;27;20450;-69
2022/06/25 12:38:09;;;;;;;0.80;0.80;;;;;;;;;;5128812;27;20489;-72
2022/06/25 12:40:40;;;;;;;1.20;1.00;;;;;;;;;;5130145;27;20447;-69
2022/06/25 12:43:07;;;;;;;1.33;0.80;;;;;;;;;;5129136;27;20435;-71
2022/06/25 12:45:35;;;;;;;1.03;0.93;;;;;;;;;;5116025;27;20557;-69
2022/06/25 12:48:02;;;;;;;3.20;1.20;;;;;;;;;;5128860;27;20459;-69
2022/06/25 12:50:31;;;;;;;2.33;1.73;;;;;;;;;;5129702;27;20443;-70
2022/06/25 12:53:07;;;;;;;0.90;0.90;;;;;;;;;;5132709;27;20945;-72
2022/06/25 12:55:34;;;;;;;1.40;0.97;;;;;;;;;;5129242;27;20496;-70
2022/06/25 12:58:04;;;;;;;1.00;0.90;;;;;;;;;;5128466;27;20489;-71
2022/06/25 13:00:32;;;;;;;1.63;1.07;;;;;;;;;;5127707;27;20458;-71
2022/06/25 13:02:59;;;;;;;1.40;1.27;;;;;;;;;;5129070;27;20466;-70
2022/06/25 13:05:27;;;;;;;1.20;1.10;;;;;;;;;;5129284;27;20460;-70
2022/06/25 13:07:55;;;;;;;1.30;0.93;;;;;;;;;;5128439;28;20450;-68
2022/06/25 13:10:23;;;;;;;1.57;0.80;;;;;;;;;;5129351;28;20450;-69
2022/06/25 13:12:52;;;;;;;1.27;1.17;;;;;;;;;;5132120;27;20461;-69
2022/06/25 13:15:20;;;;;;;1.27;1.17;;;;;;;;;;5129202;28;20817;-73
2022/06/25 13:17:47;;;;;;;1.60;1.30;;;;;;;;;;5128413;28;20822;-69
2022/06/25 13:20:15;;;;;;;0.93;0.80;;;;;;;;;;5128119;28;20533;-68
2022/06/25 13:22:42;;;;;;;1.70;1.57;;;;;;;;;;5128817;28;20584;-68
2022/06/25 13:25:10;;;;;;;2.20;0.97;;;;;;;;;;5127881;28;20435;-70
2022/06/25 13:27:38;;;;;;;1.10;1.00;;;;;;;;;;5123071;28;20562;-71
2022/06/25 13:30:06;;;;;;;1.23;1.10;;;;;;;;;;5128344;28;20447;-70
2022/06/25 13:32:33;;;;;;;1.30;1.02;;;;;;;;;;5127682;28;20448;-69
2022/06/25 13:35:03;;;;;;;1.10;1.00;;;;;;;;;;5127832;28;20574;-71
2022/06/25 13:37:30;;;;;;;1.07;0.97;;;;;;;;;;5128330;28;20964;-70
2022/06/25 13:39:57;;;;;;;1.00;0.90;;;;;;;;;;5129746;27;20454;-69
2022/06/25 13:42:25;;;;;;;1.43;0.90;;;;;;;;;;5133591;27;20434;-68
2022/06/25 13:44:53;;;;;;;0.77;0.77;;;;;;;;;;5131810;27;20458;-71
2022/06/25 13:47:20;;;;;;;0.90;0.80;;;;;;;;;;5132790;27;20472;-67
2022/06/25 13:49:47;;;;;;;1.40;1.30;;;21.80;96.70;;;;;;5134631;27;20442;-68
2022/06/25 13:52:14;;;;;;;1.90;0.80;;;29.00;1.00;;;;;;5134821;27;20835;-67
2022/06/25 13:54:41;;;;;;;1.60;1.20;;;;;;;;;;5134227;27;21233;-69
2022/06/25 13:57:08;;;;;;;1.37;1.00;;;;;;;;;;5133437;27;20449;-68
2022/06/25 13:59:36;;;;;;;0.87;0.77;;;;;;;;;;5134720;27;20937;-68
2022/06/25 14:02:05;;;;;;;0.80;0.80;;;;;;;;;;5134719;27;20454;-68
2022/06/25 14:04:32;;;;;;;1.27;1.00;;;;;;;;;;5135322;27;20442;-69
2022/06/25 14:06:59;;;;;;;0.80;0.80;;;;;;;;;;5134547;27;20442;-71
2022/06/25 14:09:26;;;;;;;1.80;0.90;;;;;;;;;;5135211;27;20450;-69
2022/06/25 14:11:53;;;;;;;1.05;0.90;;;;;;;;;;5142723;27;20581;-69
2022/06/25 14:14:20;;;;;;;1.45;1.00;;;;;;;;;;5137438;27;20659;-68
2022/06/25 14:16:49;;;;;;;1.38;1.10;;;;;;;;;;5134787;27;20200;-68
2022/06/25 14:19:16;;;;;;;1.20;0.93;;;;;;;;;;5135050;27;20228;-68
2022/06/25 14:21:46;;;;;;;1.52;1.10;;;;;;;;;;5134810;27;20216;-68
2022/06/25 14:24:13;;;;;;;1.00;0.90;;;;;;;;;;5134134;27;20197;-67
2022/06/25 14:26:40;;;;;;;1.10;1.00;;;;;;;;;;5134774;27;20201;-71
2022/06/25 14:29:08;;;;;;;1.92;1.10;;;;;;;;;;5134195;27;20201;-67
2022/06/25 14:31:36;;;;;;;1.00;0.90;;;;;;;;;;5134235;27;20292;-67
2022/06/25 14:34:04;;;;;;;1.10;0.90;;;;;;;;;;5120807;27;20713;-67
2022/06/25 14:44:43;;;;;;;1.30;1.20;;;;;;;;;;5131342;27;20203;-71
2022/06/25 14:47:09;;;;;;;1.27;0.90;;;29.00;1.00;;;;;;5130799;27;20197;-71
2022/06/25 14:49:37;;;;;;;1.27;1.17;;;34.30;1.00;;;;;;5129349;27;20204;-71
2022/06/25 14:52:04;;;;;;;2.03;1.67;;;35.10;1.00;;;;;;5130326;27;20207;-71
2022/06/25 14:54:32;;;;;;;1.40;1.30;;;;;;;;;;5135465;27;20705;-71
2022/06/25 14:56:59;;;;;;;2.15;1.95;;;34.80;1.00;;;;;;5130998;27;20196;-70
2022/06/25 14:59:27;;;;;;;1.38;1.27;;;;;;;;;;5131298;27;20270;-70
2022/06/25 15:01:54;;;;;;;1.40;1.30;;;35.20;1.00;;;;;;5130460;27;20293;-70
2022/06/25 15:04:21;;;;;;;1.38;1.27;;;;;;;;;;5131417;27;20215;-70
2022/06/25 15:06:50;;;;;;;1.02;0.93;;;;;;;;;;5119617;27;20208;-70
2022/06/25 15:09:17;;;;;;;1.65;1.50;;;;;;;;;;5131879;27;20233;-70
2022/06/25 15:11:44;;;;;;;1.63;1.45;;;34.80;1.00;;;;;;5137971;27;20208;-70
2022/06/25 15:14:10;;;;;;;1.65;1.27;;;34.40;1.00;;;;;;5134828;27;21128;-70